Time;durP1;ratioP1;P1;durP2;ratioP2;P2;SDS_P1;SDS_P2;PMS_P1;PMS_P2;Temp;Humidity;BMP_temperature;BMP_pressure;BME280_temperature;BME280_humidity;BME280_pressure;Samples;Min_cycle;Max_cycle;Signal;HPM_P1;HPM_P2
2023/09/13 03:56:37;;;;;;;7.43;4.75;;;;;;;16.76;100.00;100159.81;5672447;28;20137;-84
2023/09/13 03:59:41;;;;;;;13.80;5.65;;;;;;;16.72;100.00;100161.25;5223714;34;33879;-84
2023/09/13 04:02:44;;;;;;;11.52;5.60;;;;;;;16.69;100.00;100161.72;5235956;34;33796;-84
2023/09/13 04:05:47;;;;;;;10.98;5.15;;;;;;;16.66;100.00;100162.16;5213001;34;34584;-84
2023/09/13 04:08:50;;;;;;;9.68;4.82;;;;;;;16.67;100.00;100166.53;5236755;34;34145;-84
2023/09/13 04:11:53;;;;;;;12.32;5.82;;;;;;;16.68;100.00;100158.16;5236590;34;33583;-84
2023/09/13 04:14:56;;;;;;;11.68;5.85;;;;;;;16.66;100.00;100167.59;5223988;34;34070;-84
2023/09/13 04:17:59;;;;;;;9.55;5.10;;;;;;;16.63;100.00;100168.03;5212853;34;33406;-84
2023/09/13 04:21:02;;;;;;;10.13;5.20;;;;;;;16.61;100.00;100178.28;5212763;34;34581;-84
2023/09/13 04:24:06;;;;;;;15.88;5.93;;;;;;;16.68;100.00;100171.75;5235523;34;34357;-84
2023/09/13 04:27:08;;;;;;;9.52;5.57;;;;;;;16.75;100.00;100168.97;5213112;34;33750;-84
2023/09/13 04:30:13;;;;;;;10.02;5.35;;;;;;;16.83;100.00;100173.31;5224228;34;33775;-84
2023/09/13 04:33:16;;;;;;;14.02;6.62;;;;;;;16.82;100.00;100171.66;5236907;34;33570;-84
2023/09/13 04:36:20;;;;;;;10.80;5.90;;;;;;;16.82;100.00;100174.38;5224108;34;34598;-84
2023/09/13 04:39:23;;;;;;;12.20;5.90;;;;;;;16.78;100.00;100179.41;5224024;34;34372;-84
2023/09/13 04:42:26;;;;;;;11.20;5.32;;;;;;;16.77;100.00;100180.50;5224602;34;34431;-84
2023/09/13 04:45:29;;;;;;;10.90;5.62;;;;;;;16.72;100.00;100186.56;5225163;34;34449;-83
2023/09/13 04:48:33;;;;;;;12.07;5.30;;;;;;;16.77;100.00;100185.94;5224997;34;33532;-83
2023/09/13 04:51:36;;;;;;;12.20;5.43;;;;;;;16.83;100.00;100187.75;5212836;34;33651;-83
2023/09/13 04:54:39;;;;;;;10.63;5.50;;;;;;;16.90;100.00;100190.41;5224901;34;33534;-83
2023/09/13 04:57:42;;;;;;;9.52;5.70;;;;;;;16.94;100.00;100194.34;5227959;34;34669;-83
2023/09/13 05:00:46;;;;;;;11.10;5.35;;;;;;;16.97;100.00;100191.19;5206943;34;33794;-83
2023/09/13 05:03:50;;;;;;;12.75;6.22;;;;;;;17.00;100.00;100196.16;5219372;34;33430;-83
2023/09/13 05:06:54;;;;;;;9.52;5.70;;;;;;;17.10;100.00;100195.66;5219131;34;34174;-83
2023/09/13 05:09:56;;;;;;;10.15;5.25;;;;;;;17.19;100.00;100202.44;5206930;34;34799;-83
2023/09/13 05:13:00;;;;;;;13.38;5.80;;;;;;;17.28;100.00;100197.53;5223566;34;34251;-83
2023/09/13 05:16:03;;;;;;;11.52;5.80;;;;;;;17.36;100.00;100189.91;5236546;34;33938;-83
2023/09/13 05:19:06;;;;;;;13.45;5.68;;;;;;;17.44;100.00;100196.94;5223646;34;34571;-83
2023/09/13 05:22:09;;;;;;;10.88;5.55;;;;;;;17.56;100.00;100207.91;5236208;34;33870;-83
2023/09/13 05:25:12;;;;;;;12.25;6.22;;;;;;;17.65;100.00;100215.53;5223957;34;33891;-83
2023/09/13 05:28:16;;;;;;;9.20;5.15;;;;;;;17.86;100.00;100214.25;5236413;34;34500;-83
2023/09/13 05:31:19;;;;;;;10.95;6.10;;;;;;;17.88;100.00;100212.12;5236107;34;33723;-84
2023/09/13 05:34:22;;;;;;;11.07;5.57;;;;;;;17.96;100.00;100213.72;5223610;34;34604;-83
2023/09/13 05:37:26;;;;;;;10.05;5.40;;;;;;;18.08;100.00;100216.47;5223557;34;34693;-83
2023/09/13 05:40:30;;;;;;;9.80;5.05;;;;;;;18.16;100.00;100216.13;5222098;34;33770;-83
2023/09/13 05:43:37;;;;;;;13.85;6.65;;;;;;;18.22;100.00;100212.50;5234762;34;33750;-83
2023/09/13 05:46:39;;;;;;;12.23;5.78;;;;;;;18.38;100.00;100211.00;5223599;34;33964;-82
2023/09/13 05:49:43;;;;;;;9.88;4.72;;;;;;;18.63;100.00;100213.53;5223155;34;33759;-83
2023/09/13 05:52:45;;;;;;;10.27;5.50;;;;;;;18.74;100.00;100220.91;5232257;33;33660;-87
2023/09/13 05:55:49;;;;;;;12.13;5.50;;;;;;;18.80;100.00;100224.59;5240583;33;34393;-87
2023/09/13 05:58:52;;;;;;;14.63;6.10;;;;;;;18.99;100.00;100219.87;5226313;33;33448;-88
2023/09/13 06:01:55;;;;;;;13.38;5.43;;;;;;;19.16;100.00;100220.84;5219482;33;34578;-85
2023/09/13 06:04:58;;;;;;;10.27;6.00;;;;;;;19.28;100.00;100220.00;5222905;34;33918;-83
2023/09/13 06:08:02;;;;;;;10.80;4.40;;;;;;;19.32;100.00;100219.25;5236002;34;33807;-83
2023/09/13 06:11:05;;;;;;;15.43;5.70;;;;;;;19.47;100.00;100216.03;5235348;34;33770;-82
2023/09/13 06:14:08;;;;;;;13.35;5.30;;;;;;;19.62;100.00;100216.34;5235304;34;34884;-83
2023/09/13 06:17:14;;;;;;;9.70;5.07;;;;;;;19.73;100.00;100211.97;5216550;34;34711;-82
2023/09/13 06:20:16;;;;;;;10.60;5.60;;;;;;;19.88;100.00;100219.63;5223033;34;33423;-83
2023/09/13 06:23:34;;;;;;;13.62;5.18;;;;;;;20.01;100.00;100216.63;5234387;34;33958;-82
2023/09/13 06:26:37;;;;;;;11.77;6.10;;;;;;;20.15;99.04;100215.25;5223005;34;33785;-82
2023/09/13 06:29:40;;;;;;;9.18;5.12;;;;;;;20.32;95.72;100219.91;5211277;34;34026;-82
2023/09/13 06:32:43;;;;;;;13.02;5.00;;;;;;;20.40;95.15;100211.31;5195435;34;34179;-82
2023/09/13 06:35:46;;;;;;;12.40;5.65;;;;;;;20.52;94.16;100214.84;5227962;34;33408;-83
2023/09/13 06:38:50;;;;;;;16.77;5.65;;;;;;;20.73;92.14;100220.66;5230565;34;33931;-82
2023/09/13 06:41:54;;;;;;;9.20;5.05;;;;;;;20.86;90.53;100219.50;5224327;33;33913;-82
2023/09/13 06:44:59;;;;;;;11.15;5.53;;;;;;;21.11;89.46;100219.87;5222287;33;33795;-83
2023/09/13 06:48:23;;;;;;;11.82;5.62;;;;;;;21.30;90.45;100217.69;5235098;34;34226;-82
2023/09/13 06:51:27;;;;;;;11.15;5.40;;;;;;;21.39;89.59;100213.47;5235217;34;33616;-82
2023/09/13 06:54:33;;;;;;;9.93;5.55;;;;;;;21.58;86.69;100210.41;5223531;34;34538;-82
2023/09/13 06:57:38;;;;;;;13.30;5.65;;;;;;;21.75;86.21;100213.91;5223351;34;34418;-82
2023/09/13 07:00:44;;;;;;;12.50;5.78;;;;;;;21.98;85.05;100207.31;5235855;34;34290;-82
2023/09/13 07:04:08;;;;;;;12.85;5.70;;;;;;;22.07;82.31;100205.75;5215810;34;33927;-82
2023/09/13 07:07:15;;;;;;;16.00;5.95;;;;;;;22.30;83.90;100212.88;5224467;34;34461;-82
2023/09/13 07:10:18;;;;;;;16.08;5.40;;;;;;;22.30;81.42;100207.41;5224968;34;33615;-83
2023/09/13 07:13:21;;;;;;;11.70;5.32;;;;;;;22.42;79.83;100204.50;5237100;34;34625;-83
2023/09/13 07:16:24;;;;;;;13.85;5.43;;;;;;;22.59;79.67;100210.69;5225086;33;34942;-82
2023/09/13 07:19:27;;;;;;;16.73;6.47;;;;;;;22.69;77.24;100209.09;5214103;34;34715;-87
2023/09/13 07:22:30;;;;;;;9.63;5.60;;;;;;;22.83;76.77;100210.31;5210994;34;33763;-87
2023/09/13 07:25:33;;;;;;;13.02;5.15;;;;;;;22.94;75.99;100208.50;5211927;34;33937;-87
2023/09/13 07:28:36;;;;;;;19.12;5.53;;;;;;;23.16;76.26;100200.13;5222311;34;35339;-87
2023/09/13 07:31:39;;;;;;;12.63;5.55;;;;;;;23.42;76.88;100207.41;5243449;34;33905;-83
2023/09/13 07:34:42;;;;;;;13.35;5.75;;;;;;;23.47;75.09;100214.88;5221430;34;33883;-83
2023/09/13 07:37:45;;;;;;;9.32;5.03;;;;;;;23.47;76.06;100210.19;5224545;34;33978;-83
2023/09/13 07:40:48;;;;;;;15.60;5.80;;;;;;;23.70;77.89;100213.63;5219334;33;33466;-83
2023/09/13 07:43:51;;;;;;;10.40;5.10;;;;;;;23.77;72.87;100219.69;5225074;34;34491;-83
2023/09/13 07:46:53;;;;;;;18.30;5.57;;;;;;;24.00;73.21;100218.41;5213226;34;33784;-83
2023/09/13 07:50:00;;;;;;;13.57;5.70;;;;;;;24.19;72.39;100218.72;5212280;34;33981;-83
2023/09/13 07:53:04;;;;;;;11.38;5.22;;;;;;;24.46;75.15;100213.03;5225313;34;33595;-83
2023/09/13 07:56:09;;;;;;;12.88;5.53;;;;;;;24.66;70.14;100221.28;5237845;33;33533;-82
2023/09/13 07:59:15;;;;;;;11.05;5.47;;;;;;;24.60;69.71;100216.87;5212118;34;33620;-83
2023/09/13 08:02:19;;;;;;;11.77;5.07;;;;;;;24.54;70.02;100217.97;5229152;34;33802;-83
2023/09/13 08:05:22;;;;;;;10.32;5.35;;;;;;;24.72;69.81;100216.59;5195929;34;33908;-82
2023/09/13 08:08:25;;;;;;;13.52;4.93;;;;;;;24.80;69.60;100212.44;5218068;34;34918;-83
2023/09/13 08:11:28;;;;;;;8.90;5.53;;;;;;;24.91;70.23;100216.03;5224313;34;34628;-83
2023/09/13 08:14:31;;;;;;;10.63;5.32;;;;;;;25.15;69.35;100217.13;5223014;34;34042;-83
2023/09/13 08:17:34;;;;;;;8.07;5.12;;;;;;;25.39;67.25;100211.84;5220965;34;33374;-83
2023/09/13 08:20:39;;;;;;;13.35;5.18;;;;;;;25.38;66.47;100220.37;5221338;34;33931;-83
2023/09/13 08:23:42;;;;;;;12.07;5.00;;;;;;;25.52;66.35;100213.97;5212642;33;33867;-83
2023/09/13 08:26:45;;;;;;;12.27;5.37;;;;;;;25.80;66.02;100219.97;5218755;34;36201;-83
2023/09/13 08:29:48;;;;;;;11.27;6.03;;;;;;;25.87;64.99;100217.72;5222577;34;33913;-83
2023/09/13 08:32:51;;;;;;;12.10;5.30;;;;;;;26.09;63.93;100225.62;5236211;34;33593;-83
2023/09/13 08:35:54;;;;;;;14.48;5.40;;;;;;;26.06;63.26;100228.09;5224144;34;33787;-83
2023/09/13 08:38:58;;;;;;;11.50;5.28;;;;;;;26.27;63.11;100224.13;5224045;34;34498;-82
2023/09/13 08:42:01;;;;;;;12.37;5.30;;;;;;;26.53;62.10;100223.97;5213731;34;33594;-83
2023/09/13 08:45:04;;;;;;;12.35;5.72;;;;;;;26.72;61.83;100216.63;5235006;34;33469;-83
2023/09/13 08:48:09;;;;;;;11.27;5.90;;;;;;;26.90;61.82;100217.84;5235259;34;33557;-83
2023/09/13 08:51:13;;;;;;;12.23;5.80;;;;;;;27.02;62.16;100209.16;5235325;34;34216;-83
2023/09/13 08:54:17;;;;;;;9.15;5.18;;;;;;;27.21;59.91;100214.81;5224650;34;33563;-83
2023/09/13 08:57:22;;;;;;;12.90;5.50;;;;;;;27.24;61.59;100222.53;5237894;34;33569;-82
2023/09/13 09:00:26;;;;;;;13.70;5.70;;;;;;;27.28;61.67;100220.81;5212384;34;33488;-82
2023/09/13 09:03:30;;;;;;;12.18;5.72;;;;;;;27.60;61.41;100225.69;5221871;34;34007;-83
2023/09/13 09:06:34;;;;;;;9.77;4.95;;;;;;;27.83;60.43;100213.00;5229757;34;34297;-82
2023/09/13 09:09:37;;;;;;;13.70;5.28;;;;;;;28.02;57.36;100219.38;5235810;34;34260;-82
2023/09/13 09:12:48;;;;;;;8.65;4.97;;;;;;;27.98;56.80;100212.78;5216175;34;33887;-82
2023/09/13 09:15:52;;;;;;;9.85;4.82;;;;;;;28.15;57.49;100217.00;5235676;34;34556;-82
2023/09/13 09:19:00;;;;;;;10.40;5.62;;;;;;;28.17;56.18;100232.19;5237422;34;34165;-82
2023/09/13 09:22:03;;;;;;;10.35;5.10;;;;;;;28.50;54.98;100218.41;5235129;34;34143;-87
2023/09/13 09:25:11;;;;;;;11.40;5.25;;;;;;;28.36;54.52;100218.31;5229596;34;33839;-87
2023/09/13 09:28:14;;;;;;;11.85;5.40;;;;;;;28.43;54.38;100227.13;5234560;34;33629;-83
2023/09/13 09:31:19;;;;;;;13.85;5.60;;;;;;;28.58;54.41;100226.06;5213401;34;33438;-83
2023/09/13 09:34:29;;;;;;;13.70;5.20;;;;;;;28.85;52.92;100227.25;5223322;34;34142;-83
2023/09/13 09:37:33;;;;;;;8.85;5.18;;;;;;;28.80;53.17;100222.63;5236431;34;33859;-83
2023/09/13 09:40:38;;;;;;;7.80;4.53;;;;;;;29.02;51.55;100229.47;5224503;34;33773;-83
2023/09/13 09:43:43;;;;;;;9.63;5.37;;;;;;;29.01;51.01;100236.13;5238051;34;33856;-83
2023/09/13 09:46:46;;;;;;;9.38;5.00;;;;;;;28.89;51.71;100218.03;5231315;33;34150;-83
2023/09/13 09:49:49;;;;;;;8.30;5.43;;;;;;;28.87;51.87;100223.06;5223768;34;33641;-83
2023/09/13 09:52:52;;;;;;;7.50;4.97;;;;;;;29.11;51.89;100219.34;5213120;34;34065;-83
2023/09/13 09:55:56;;;;;;;8.45;5.30;;;;;;;29.20;50.85;100223.06;5212068;34;33370;-83
2023/09/13 09:58:59;;;;;;;9.38;5.00;;;;;;;29.26;51.71;100221.81;5212801;34;33553;-83
2023/09/13 10:02:03;;;;;;;10.32;4.72;;;;;;;29.53;50.90;100209.91;5201801;34;33783;-83
2023/09/13 10:05:07;;;;;;;8.18;4.90;;;;;;;29.58;50.43;100206.22;5236262;34;33863;-83
2023/09/13 10:08:09;;;;;;;8.77;5.05;;;;;;;29.92;49.10;100205.78;5238442;33;33932;-83
2023/09/13 10:11:20;;;;;;;8.88;5.28;;;;;;;30.06;49.46;100205.75;5223731;34;33588;-83
2023/09/13 10:14:27;;;;;;;6.85;4.90;;;;;;;30.10;46.63;100208.72;5236383;34;33781;-83
2023/09/13 10:17:30;;;;;;;6.97;4.85;;;;;;;29.77;47.64;100193.06;5228297;34;34554;-83
2023/09/13 10:20:34;;;;;;;7.53;5.03;;;;;;;29.99;46.08;100200.63;5214462;34;33464;-83
2023/09/13 10:23:44;;;;;;;9.65;5.00;;;;;;;29.90;46.16;100196.97;5222094;34;34679;-83
2023/09/13 10:26:51;;;;;;;10.68;4.72;;;;;;;30.23;45.26;100197.59;5235308;34;34573;-83
2023/09/13 10:30:00;;;;;;;8.18;4.87;;;;;;;30.10;46.28;100194.84;5225577;34;34001;-83
2023/09/13 10:33:06;;;;;;;7.87;5.00;;;;;;;30.46;46.62;100192.06;5220043;33;33586;-83
2023/09/13 10:36:21;;;;;;;9.70;4.70;;;;;;;30.85;45.73;100194.16;5231489;33;34073;-83
2023/09/13 10:39:30;;;;;;;12.80;5.12;;;;;;;31.13;43.76;100186.44;5233043;33;33863;-82
2023/09/13 10:42:33;;;;;;;11.25;4.90;;;;;;;31.38;43.40;100190.50;5233005;34;33804;-83
2023/09/13 10:45:40;;;;;;;10.25;5.55;;;;;;;31.72;43.47;100188.97;5212038;34;33750;-83
2023/09/13 10:48:45;;;;;;;9.77;5.20;;;;;;;31.85;41.10;100192.72;5216406;34;34663;-87
2023/09/13 10:51:50;;;;;;;6.72;5.20;;;;;;;31.65;41.78;100188.63;5196242;34;34845;-87
2023/09/13 10:54:56;;;;;;;7.90;5.57;;;;;;;31.63;42.69;100182.56;5222697;34;34094;-84
2023/09/13 10:58:01;;;;;;;7.72;4.60;;;;;;;31.81;41.53;100178.66;5225177;34;34502;-83
2023/09/13 11:01:06;;;;;;;8.45;5.15;;;;;;;31.93;40.74;100180.00;5222477;34;33889;-84
2023/09/13 11:04:09;;;;;;;9.88;5.28;;;;;;;31.40;41.34;100171.53;5241051;34;34248;-82
2023/09/13 11:07:14;;;;;;;9.85;5.37;;;;;;;31.55;41.91;100172.22;5220599;34;34053;-81
2023/09/13 11:10:20;;;;;;;9.82;5.65;;;;;;;32.33;40.42;100163.16;5241020;34;34023;-82
2023/09/13 11:13:32;;;;;;;8.73;5.80;;;;;;;32.70;38.94;100167.19;5241724;34;34541;-82
2023/09/13 11:16:35;;;;;;;7.28;5.40;;;;;;;33.38;38.26;100170.91;5226190;34;34470;-82
2023/09/13 11:19:38;;;;;;;8.27;5.03;;;;;;;34.25;35.42;100178.75;5223246;34;33552;-82
2023/09/13 11:22:41;;;;;;;12.07;5.25;;;;;;;34.36;34.40;100173.53;5225750;34;33740;-82
2023/09/13 11:25:55;;;;;;;9.60;5.10;;;;;;;34.27;33.68;100168.03;5231475;34;33923;-81
2023/09/13 11:29:25;;;;;;;6.95;5.45;;;;;;;34.39;33.80;100163.66;5241003;34;34414;-82
2023/09/13 11:32:30;;;;;;;11.05;5.37;;;;;;;34.61;32.68;100159.69;5247747;33;34511;-82
2023/09/13 11:35:34;;;;;;;8.70;5.15;;;;;;;35.58;32.77;100159.00;5242241;33;34559;-82
2023/09/13 11:38:37;;;;;;;6.28;5.00;;;;;;;36.35;31.29;100157.31;5243022;33;34445;-82
2023/09/13 11:41:40;;;;;;;6.97;5.20;;;;;;;37.34;28.41;100144.31;5242497;33;34519;-82
2023/09/13 11:44:59;;;;;;;6.53;4.50;;;;;;;37.19;28.65;100140.34;5255203;33;34490;-82
2023/09/13 11:48:07;;;;;;;7.20;5.28;;;;;;;37.44;27.32;100132.50;5231405;33;33471;-81
2023/09/13 11:51:12;;;;;;;8.75;4.80;;;;;;;39.17;25.22;100137.62;5243276;33;33802;-81
2023/09/13 11:54:25;;;;;;;6.22;4.43;;;;;;;40.19;23.55;100139.53;5255289;33;34048;-82
2023/09/13 11:57:49;;;;;;;6.87;4.22;;;;;;;41.42;22.81;100133.84;5242524;33;34453;-86
2023/09/13 12:01:03;;;;;;;7.97;4.40;;;;;;;42.01;21.70;100128.97;5254761;33;34301;-82
2023/09/13 12:04:09;;;;;;;5.03;4.28;;;;;;;42.14;22.21;100137.91;5254887;33;33852;-82
2023/09/13 12:07:16;;;;;;;4.97;4.07;;;;;;;42.62;21.77;100134.81;5231755;33;33848;-82
2023/09/13 12:10:31;;;;;;;7.22;3.87;;;;;;;42.49;20.11;100128.72;5248058;33;34634;-82
2023/09/13 12:13:52;;;;;;;7.28;4.00;;;;;;;43.28;19.50;100134.47;5255174;33;33795;-82
2023/09/13 12:17:14;;;;;;;4.60;4.18;;;;;;;43.33;19.47;100124.75;5255417;33;34119;-83
2023/09/13 12:20:17;;;;;;;6.47;3.65;;;;;;;44.42;18.66;100124.00;5241434;33;33887;-82
2023/09/13 12:23:20;;;;;;;5.70;3.90;;;;;;;43.90;18.96;100121.75;5229660;33;33539;-82
2023/09/13 12:26:26;;;;;;;6.70;3.97;;;;;;;43.15;19.29;100125.59;5255343;33;33762;-82
2023/09/13 12:29:29;;;;;;;4.20;3.80;;;;;;;43.27;19.39;100121.53;5241918;33;33940;-83
2023/09/13 12:32:31;;;;;;;6.35;3.80;;;;;;;44.39;17.91;100111.44;5256153;33;34388;-82
2023/09/13 12:35:39;;;;;;;6.87;3.90;;;;;;;44.55;17.41;100105.22;5215649;34;34476;-82
2023/09/13 12:38:42;;;;;;;5.90;3.72;;;;;;;44.61;17.69;100106.38;5206541;34;33994;-83
2023/09/13 12:41:46;;;;;;;3.60;3.12;;;;;;;45.94;15.94;100097.41;5234610;34;33868;-82
2023/09/13 12:44:49;;;;;;;4.22;3.80;;;;;;;46.02;15.44;100086.75;5213277;34;34629;-82
2023/09/13 12:47:52;;;;;;;4.32;3.30;;;;;;;45.73;15.75;100089.13;5225267;34;33480;-81
2023/09/13 12:50:55;;;;;;;4.20;3.70;;;;;;;46.29;15.05;100090.44;5224751;34;33988;-82
2023/09/13 12:54:02;;;;;;;4.10;3.65;;;;;;;46.80;15.00;100090.47;5237478;34;33710;-82
2023/09/13 12:57:05;;;;;;;7.03;3.53;;;;;;;46.11;14.97;100089.88;5237268;34;34312;-82
2023/09/13 13:00:12;;;;;;;4.70;3.70;;;;;;;45.62;15.26;100089.25;5213138;34;34162;-83
2023/09/13 13:03:16;;;;;;;3.40;3.10;;;;;;;45.90;14.76;100080.41;5240513;34;34959;-85
2023/09/13 13:06:19;;;;;;;6.62;3.60;;;;;;;46.54;14.19;100072.97;5226988;34;35324;-85
2023/09/13 13:09:23;;;;;;;4.28;3.05;;;;;;;46.11;14.90;100070.75;5228430;34;34136;-82
2023/09/13 13:12:27;;;;;;;3.72;3.42;;;;;;;46.81;15.25;100063.59;5215288;34;33904;-81
2023/09/13 13:15:32;;;;;;;10.05;3.65;;;;;;;45.96;15.36;100071.37;5229754;33;33882;-81
2023/09/13 13:18:35;;;;;;;6.40;3.83;;;;;;;45.81;15.41;100076.41;5236769;34;34615;-82
2023/09/13 13:21:53;;;;;;;4.20;3.47;;;;;;;45.82;15.91;100078.84;5210999;34;34464;-82
2023/09/13 13:24:59;;;;;;;4.97;3.47;;;;;;;44.50;16.35;100065.94;5235218;34;33952;-81
2023/09/13 13:28:02;;;;;;;4.37;3.65;;;;;;;45.09;16.12;100062.19;5223785;34;33588;-81
2023/09/13 13:31:06;;;;;;;4.85;3.40;;;;;;;45.23;16.34;100054.34;5223322;34;34003;-82
2023/09/13 13:34:09;;;;;;;6.05;3.35;;;;;;;44.35;16.49;100051.84;5224664;34;33483;-82
2023/09/13 13:37:13;;;;;;;4.87;3.20;;;;;;;44.10;16.72;100051.16;5225769;34;34832;-82
2023/09/13 13:40:16;;;;;;;10.90;3.50;;;;;;;45.39;16.08;100038.72;5212852;34;34487;-83
2023/09/13 13:43:19;;;;;;;4.22;3.12;;;;;;;45.66;15.96;100041.66;5213163;34;33431;-83
2023/09/13 13:46:22;;;;;;;7.07;3.37;;;;;;;45.87;15.26;100041.38;5211528;34;34011;-81
2023/09/13 13:49:25;;;;;;;4.78;3.70;;;;;;;45.41;15.54;100039.91;5236582;34;34534;-83
2023/09/13 13:52:28;;;;;;;6.53;3.40;;;;;;;43.95;16.58;100038.31;5223462;34;34148;-83
2023/09/13 13:55:31;;;;;;;6.43;3.50;;;;;;;44.10;16.57;100034.94;5210537;34;33882;-83
2023/09/13 13:58:34;;;;;;;8.55;3.80;;;;;;;43.57;17.13;100038.06;5226260;34;34201;-83
2023/09/13 14:01:38;;;;;;;5.60;3.60;;;;;;;43.67;17.18;100028.69;5226561;33;34424;-83
2023/09/13 14:04:43;;;;;;;8.65;4.00;;;;;;;43.07;18.54;100032.47;5224229;34;34103;-84
2023/09/13 14:07:46;;;;;;;3.85;3.40;;;;;;;41.34;19.48;100031.28;5195936;34;32589;-83
2023/09/13 14:10:52;;;;;;;3.78;3.42;;;;;;;39.88;21.03;100027.97;5206524;34;34312;-83
2023/09/13 14:13:55;;;;;;;6.32;3.37;;;;;;;38.26;22.49;100021.03;5236337;34;34165;-83
2023/09/13 14:16:58;;;;;;;3.95;3.55;;;;;;;37.27;24.22;100023.37;5221247;34;34630;-83
2023/09/13 14:20:02;;;;;;;4.32;3.90;;;;;;;36.29;25.48;100017.38;5220472;34;33819;-83
2023/09/13 14:23:05;;;;;;;11.82;3.90;;;;;;;35.54;26.21;100023.66;5220860;34;33589;-83
2023/09/13 14:26:08;;;;;;;12.15;4.22;;;;;;;34.82;28.64;100009.41;5230824;34;34233;-83
2023/09/13 14:29:14;;;;;;;6.30;3.90;;;;;;;34.31;28.73;100015.28;5226271;34;33571;-82
2023/09/13 14:32:17;;;;;;;6.80;4.85;;;;;;;33.72;29.40;100018.31;5221347;34;34230;-83
2023/09/13 14:35:21;;;;;;;5.10;3.92;;;;;;;33.37;29.61;100023.34;5212206;34;33996;-83
2023/09/13 14:38:24;;;;;;;6.93;4.10;;;;;;;32.86;30.14;100016.91;5223210;34;34252;-83
2023/09/13 14:41:26;;;;;;;6.18;4.20;;;;;;;32.55;30.84;100014.44;5234797;34;33840;-83
2023/09/13 14:44:29;;;;;;;6.07;4.20;;;;;;;32.48;31.61;100014.97;5221710;34;33899;-83
2023/09/13 14:47:33;;;;;;;4.53;3.95;;;;;;;32.40;31.27;100007.41;5210768;34;33499;-83
2023/09/13 14:50:36;;;;;;;14.90;4.57;;;;;;;32.25;31.03;100006.00;5221698;34;33815;-83
2023/09/13 14:53:39;;;;;;;6.65;3.97;;;;;;;32.05;31.68;100011.09;5221508;34;34310;-83
2023/09/13 14:56:42;;;;;;;7.78;4.32;;;;;;;31.87;31.32;100006.69;5222396;34;33696;-83
2023/09/13 14:59:45;;;;;;;5.30;4.20;;;;;;;31.58;31.47;100012.94;5238712;34;33873;-86
2023/09/13 15:02:48;;;;;;;6.53;4.70;;;;;;;31.51;32.11;100007.88;5225563;34;34163;-87
2023/09/13 15:05:51;;;;;;;6.15;4.40;;;;;;;31.45;32.61;100005.59;5239730;34;34284;-87
2023/09/13 15:08:56;;;;;;;8.27;4.28;;;;;;;31.36;35.26;100000.03;5239934;34;33420;-83
2023/09/13 15:11:59;;;;;;;5.78;4.55;;;;;;;31.20;33.07;100001.59;5224364;34;34116;-83
2023/09/13 15:15:03;;;;;;;5.57;4.35;;;;;;;31.17;33.13;99994.72;5222843;34;33838;-83
2023/09/13 15:18:06;;;;;;;6.55;4.28;;;;;;;31.16;33.11;99999.47;5205792;34;204027;-83
2023/09/13 15:21:09;;;;;;;5.15;3.72;;;;;;;30.93;33.42;100001.53;5221298;34;33877;-83
2023/09/13 15:24:12;;;;;;;7.50;4.28;;;;;;;31.01;32.59;100002.72;5222520;34;34278;-83
2023/09/13 15:27:15;;;;;;;5.03;3.92;;;;;;;31.04;32.45;99999.28;5222837;34;33482;-84
2023/09/13 15:30:19;;;;;;;5.18;4.20;;;;;;;31.00;32.43;99995.50;5222801;34;34188;-84
2023/09/13 15:33:22;;;;;;;5.78;4.30;;;;;;;31.02;32.32;99993.22;5235142;34;33671;-83
2023/09/13 15:36:25;;;;;;;9.68;4.32;;;;;;;30.97;32.07;99998.12;5222792;34;33387;-83
2023/09/13 15:39:28;;;;;;;7.30;4.15;;;;;;;30.90;32.32;100004.97;5223304;34;34446;-84
2023/09/13 15:42:31;;;;;;;4.40;3.60;;;;;;;30.72;33.32;99994.94;5236239;34;34275;-84
2023/09/13 15:45:36;;;;;;;7.03;4.20;;;;;;;30.69;32.63;100001.12;5222621;34;35981;-84
2023/09/13 15:48:57;;;;;;;4.40;3.80;;;;;;;30.55;34.05;100001.25;5224206;34;35474;-83
2023/09/13 15:52:00;;;;;;;7.22;4.07;;;;;;;30.44;34.12;100003.47;5222750;34;33920;-83
2023/09/13 15:55:04;;;;;;;7.30;4.30;;;;;;;30.17;36.35;99996.13;5225062;34;33631;-84
2023/09/13 15:58:06;;;;;;;6.05;4.30;;;;;;;30.14;33.19;99998.72;5210566;34;34560;-84
2023/09/13 16:01:09;;;;;;;7.00;4.30;;;;;;;30.06;33.32;100008.62;5207362;34;33882;-83
2023/09/13 16:04:13;;;;;;;6.50;4.10;;;;;;;30.01;33.20;100005.97;5208718;34;34048;-84
2023/09/13 16:07:16;;;;;;;8.80;4.30;;;;;;;29.93;33.04;100013.13;5207620;34;33755;-83
2023/09/13 16:10:22;;;;;;;5.47;4.10;;;;;;;29.70;34.30;100003.16;5207574;34;33692;-84
2023/09/13 16:13:25;;;;;;;6.22;4.20;;;;;;;29.49;34.61;100003.63;5220150;34;33646;-83
2023/09/13 16:16:30;;;;;;;5.10;4.60;;;;;;;29.32;36.11;99998.75;5207911;34;33512;-83
2023/09/13 16:19:34;;;;;;;4.97;4.28;;;;;;;29.08;38.00;100003.75;5221469;34;33250;-84
2023/09/13 16:22:37;;;;;;;5.87;4.40;;;;;;;29.00;35.24;99996.94;5216295;34;34873;-84
2023/09/13 16:25:40;;;;;;;7.20;4.80;;;;;;;28.89;36.79;99996.31;5237645;34;33939;-83
2023/09/13 16:28:44;;;;;;;8.05;4.40;;;;;;;28.74;38.52;99991.09;5224944;34;33499;-83
2023/09/13 16:31:48;;;;;;;6.72;4.30;;;;;;;28.56;38.56;99987.31;5202278;34;33863;-84
2023/09/13 16:34:51;;;;;;;6.93;4.45;;;;;;;28.41;39.71;99996.75;5224399;34;34732;-84
